createdAt,value
2023-04-23T00:08:39.683Z,987
2023-04-23T00:13:39.719Z,987
2023-04-23T00:18:39.677Z,987
2023-04-23T00:23:39.695Z,987
2023-04-23T00:33:39.695Z,987
2023-04-23T00:38:39.699Z,987
2023-04-23T00:43:39.707Z,987
2023-04-23T00:53:39.677Z,987
2023-04-23T01:03:39.836Z,987
2023-04-23T01:13:39.645Z,987
2023-04-23T01:23:39.657Z,987
2023-04-23T01:28:39.662Z,987
2023-04-23T01:38:39.663Z,987
2023-04-23T01:43:39.683Z,987
2023-04-23T01:48:39.663Z,987
2023-04-23T01:53:39.692Z,987
2023-04-23T01:58:39.688Z,987
2023-04-23T02:03:39.889Z,987
2023-04-23T02:08:39.715Z,987
2023-04-23T02:18:39.693Z,987
2023-04-23T02:28:39.694Z,987
2023-04-23T02:33:39.700Z,987
2023-04-23T02:43:39.695Z,987
2023-04-23T02:48:39.717Z,987
2023-04-23T03:08:39.676Z,986
2023-04-23T03:18:39.682Z,986
2023-04-23T03:23:39.686Z,986
2023-04-23T03:28:39.667Z,986
2023-04-23T03:33:39.680Z,986
2023-04-23T03:38:39.723Z,986
2023-04-23T03:43:39.710Z,986
2023-04-23T03:53:39.698Z,986
2023-04-23T04:03:39.896Z,986
2023-04-23T04:13:39.699Z,986
2023-04-23T04:23:39.678Z,986
2023-04-23T04:28:39.687Z,986
2023-04-23T04:38:39.671Z,986
2023-04-23T04:43:39.671Z,986
2023-04-23T04:53:39.683Z,986
2023-04-23T04:58:39.682Z,986
2023-04-23T05:08:39.670Z,986
2023-04-23T05:13:39.685Z,986
2023-04-23T05:23:39.708Z,986
2023-04-23T05:33:49.260Z,986
2023-04-23T05:38:39.686Z,986
2023-04-23T05:48:39.687Z,986
2023-04-23T05:58:39.652Z,986
2023-04-23T06:03:39.843Z,986
2023-04-23T06:13:41.429Z,986
2023-04-23T06:18:39.659Z,986
2023-04-23T06:28:39.651Z,986
2023-04-23T06:33:39.668Z,986
2023-04-23T06:43:39.667Z,986
2023-04-23T06:48:39.663Z,986
2023-04-23T06:58:39.656Z,986
2023-04-23T07:03:39.667Z,986
2023-04-23T07:08:39.700Z,986
2023-04-23T07:18:39.701Z,986
2023-04-23T07:28:39.686Z,986
2023-04-23T07:33:39.705Z,986
2023-04-23T07:43:39.667Z,986
2023-04-23T07:48:39.689Z,986
2023-04-23T07:53:39.690Z,986
2023-04-23T07:58:39.701Z,986
2023-04-23T08:03:39.885Z,986
2023-04-23T08:08:39.704Z,986
2023-04-23T08:13:39.721Z,986
2023-04-23T08:18:39.883Z,986
2023-04-23T08:23:39.730Z,986
2023-04-23T08:33:39.731Z,986
2023-04-23T08:43:39.710Z,986
2023-04-23T08:48:39.744Z,986
2023-04-23T08:58:39.734Z,986
2023-04-23T09:08:39.702Z,986
2023-04-23T09:18:39.677Z,986
2023-04-23T09:28:39.662Z,985
2023-04-23T09:38:39.652Z,985
2023-04-23T09:43:39.687Z,985
2023-04-23T09:53:40.371Z,985
2023-04-23T09:58:39.687Z,985
2023-04-23T10:03:41.878Z,985
2023-04-23T10:13:39.702Z,985
2023-04-23T10:23:39.690Z,985
2023-04-23T10:28:39.715Z,985
2023-04-23T10:33:46.014Z,985
2023-04-23T10:43:39.723Z,985
2023-04-23T10:53:39.708Z,985
2023-04-23T11:03:43.610Z,985
2023-04-23T11:13:39.694Z,985
2023-04-23T11:23:39.700Z,985
2023-04-23T11:28:39.706Z,985
2023-04-23T11:33:39.718Z,984
2023-04-23T11:43:39.743Z,984
2023-04-23T11:53:39.713Z,984
2023-04-23T12:03:39.967Z,984
2023-04-23T12:08:39.704Z,984
2023-04-23T12:18:39.680Z,984
2023-04-23T12:28:39.708Z,984
2023-04-23T12:38:39.689Z,984
2023-04-23T12:43:39.680Z,984
2023-04-23T12:53:39.677Z,983
2023-04-23T13:03:39.748Z,983
2023-04-23T13:08:39.757Z,983
2023-04-23T13:18:39.728Z,983
2023-04-23T13:23:39.719Z,983
2023-04-23T13:28:39.740Z,983
2023-04-23T13:38:39.725Z,983
2023-04-23T13:48:39.699Z,983
2023-04-23T13:58:39.705Z,983
2023-04-23T14:08:39.702Z,983
2023-04-23T14:13:39.684Z,982
2023-04-23T14:18:39.686Z,982
2023-04-23T14:23:39.687Z,982
2023-04-23T14:28:39.716Z,982
2023-04-23T14:38:39.701Z,982
2023-04-23T14:43:39.698Z,982
2023-04-23T14:53:39.683Z,981
2023-04-23T15:03:39.833Z,981
2023-04-23T15:13:39.682Z,981
2023-04-23T15:18:39.670Z,981
2023-04-23T15:23:39.683Z,981
2023-04-23T15:28:39.690Z,981
2023-04-23T15:38:39.697Z,981
2023-04-23T15:48:39.683Z,981
2023-04-23T15:53:39.706Z,981
2023-04-23T16:03:39.935Z,981
2023-04-23T16:08:39.696Z,981
2023-04-23T16:13:39.701Z,981
2023-04-23T16:23:39.684Z,981
2023-04-23T16:33:39.689Z,981
2023-04-23T16:43:39.693Z,981
2023-04-23T16:53:39.686Z,981
2023-04-23T17:03:39.786Z,981
2023-04-23T17:13:39.697Z,981
2023-04-23T17:18:39.705Z,980
2023-04-23T17:28:39.693Z,980
2023-04-23T17:38:39.701Z,980
2023-04-23T17:48:39.698Z,980
2023-04-23T17:53:39.704Z,980
2023-04-23T18:03:39.843Z,980
2023-04-23T18:08:41.902Z,980
2023-04-23T18:13:39.733Z,980
2023-04-23T18:23:39.720Z,980
2023-04-23T18:33:39.709Z,980
2023-04-23T18:38:39.730Z,980
2023-04-23T18:43:39.723Z,980
2023-04-23T18:48:39.717Z,980
2023-04-23T18:53:39.732Z,980
2023-04-23T19:03:39.773Z,980
2023-04-23T19:13:39.745Z,980
2023-04-23T19:23:39.739Z,980
2023-04-23T19:28:39.744Z,980
2023-04-23T19:38:39.700Z,980
2023-04-23T19:48:39.679Z,981
2023-04-23T19:58:39.722Z,981
2023-04-23T20:03:39.780Z,981
2023-04-23T20:13:39.682Z,981
2023-04-23T20:23:39.636Z,981
2023-04-23T20:28:39.693Z,981
2023-04-23T20:38:39.656Z,981
2023-04-23T20:43:39.734Z,981
2023-04-23T20:53:39.655Z,981
2023-04-23T20:58:39.666Z,981
2023-04-23T21:03:39.781Z,981
2023-04-23T21:08:39.689Z,981
2023-04-23T21:18:39.723Z,981
2023-04-23T21:28:39.679Z,981
2023-04-23T21:33:39.683Z,981
2023-04-23T21:43:39.666Z,981
2023-04-23T21:48:39.684Z,981
2023-04-23T21:58:39.668Z,981
2023-04-23T22:03:39.764Z,981
2023-04-23T22:08:39.695Z,981
2023-04-23T22:13:39.809Z,981
2023-04-23T22:23:39.720Z,981
2023-04-23T22:28:39.692Z,981
2023-04-23T22:33:39.716Z,981
2023-04-23T22:38:39.696Z,981
2023-04-23T22:48:39.677Z,981
2023-04-23T22:58:39.671Z,981
2023-04-23T23:08:39.659Z,981
2023-04-23T23:13:39.685Z,981
2023-04-23T23:18:39.662Z,981
2023-04-23T23:23:39.682Z,981
2023-04-23T23:33:39.701Z,981
2023-04-23T23:43:39.682Z,980
2023-04-23T23:48:39.700Z,980
2023-04-23T23:58:39.688Z,980
